createdAt,value
2023-05-19T00:01:48.288Z,100773.16
2023-05-19T00:04:15.275Z,100778.56
2023-05-19T00:06:42.221Z,100763.69
2023-05-19T00:09:10.317Z,100775.09
2023-05-19T00:11:38.533Z,100772.50
2023-05-19T00:14:07.113Z,100768.13
2023-05-19T00:16:34.318Z,100766.34
2023-05-19T00:19:03.126Z,100770.91
2023-05-19T00:21:31.439Z,100769.25
2023-05-19T00:23:58.139Z,100771.09
2023-05-19T00:26:24.664Z,100776.34
2023-05-19T00:28:51.107Z,100761.38
2023-05-19T00:31:17.512Z,100774.69
2023-05-19T00:33:43.939Z,100770.34
2023-05-19T00:36:10.347Z,100780.97
2023-05-19T00:38:37.633Z,100777.56
2023-05-19T00:41:05.591Z,100777.63
2023-05-19T00:43:34.212Z,100763.63
2023-05-19T00:46:00.646Z,100770.66
2023-05-19T00:48:27.357Z,100776.88
2023-05-19T00:50:54.864Z,100776.94
2023-05-19T00:53:24.363Z,100768.16
2023-05-19T00:55:50.938Z,100774.34
2023-05-19T00:58:18.972Z,100772.53
2023-05-19T01:00:45.676Z,100763.75
2023-05-19T01:03:12.279Z,100765.53
2023-05-19T01:05:42.361Z,100761.19
2023-05-19T01:08:08.989Z,100753.31
2023-05-19T01:10:35.350Z,100761.28
2023-05-19T01:13:04.335Z,100763.06
2023-05-19T01:15:37.630Z,100746.47
2023-05-19T01:18:16.738Z,100749.06
2023-05-19T01:20:52.547Z,100749.97
2023-05-19T01:23:47.624Z,100751.78
2023-05-19T01:26:42.870Z,100747.41
2023-05-19T01:29:33.805Z,100748.31
2023-05-19T01:32:02.974Z,100755.34
2023-05-19T01:34:31.313Z,100746.50
2023-05-19T01:37:00.630Z,100754.50
2023-05-19T01:39:28.322Z,100748.38
2023-05-19T01:41:55.033Z,100757.28
2023-05-19T01:44:22.197Z,100761.75
2023-05-19T01:46:49.552Z,100749.50
2023-05-19T01:49:15.957Z,100752.09
2023-05-19T01:51:43.341Z,100752.97
2023-05-19T01:54:09.686Z,100748.63
2023-05-19T01:56:55.263Z,100749.63
2023-05-19T01:59:35.061Z,100734.66
2023-05-19T02:02:07.869Z,100748.72
2023-05-19T02:04:54.744Z,100748.75
2023-05-19T02:07:32.777Z,100747.91
2023-05-19T02:10:22.800Z,100762.94
2023-05-19T02:12:53.913Z,100766.50
2023-05-19T02:15:28.454Z,100767.34
2023-05-19T02:17:55.746Z,100764.72
2023-05-19T02:20:22.255Z,100748.91
2023-05-19T02:22:48.968Z,100757.72
2023-05-19T02:25:15.309Z,100755.03
2023-05-19T02:27:42.124Z,100761.16
2023-05-19T02:30:09.255Z,100766.50
2023-05-19T02:32:36.417Z,100760.28
2023-05-19T02:35:03.867Z,100760.34
2023-05-19T02:37:30.996Z,100752.47
2023-05-19T02:39:57.375Z,100758.56
2023-05-19T02:42:23.855Z,100748.88
2023-05-19T02:44:50.255Z,100752.41
2023-05-19T02:47:16.567Z,100748.91
2023-05-19T02:49:44.049Z,100749.84
2023-05-19T02:52:10.564Z,100741.97
2023-05-19T02:54:36.904Z,100737.59
2023-05-19T02:57:03.277Z,100746.38
2023-05-19T02:59:29.692Z,100742.84
2023-05-19T03:01:59.143Z,100730.66
2023-05-19T03:04:25.508Z,100744.75
2023-05-19T03:06:51.873Z,100740.38
2023-05-19T03:09:18.563Z,100712.34
2023-05-19T03:11:44.871Z,100746.63
2023-05-19T03:14:13.433Z,100740.44
2023-05-19T03:16:43.388Z,100743.13
2023-05-19T03:19:10.303Z,100744.03
2023-05-19T03:21:36.703Z,100741.41
2023-05-19T03:24:03.276Z,100740.53
2023-05-19T03:26:29.633Z,100731.81
2023-05-19T03:28:55.976Z,100731.81
2023-05-19T03:31:22.427Z,100744.97
2023-05-19T03:33:48.824Z,100730.00
2023-05-19T03:36:15.200Z,100742.31
2023-05-19T03:38:41.520Z,100745.88
2023-05-19T03:41:07.868Z,100752.06
2023-05-19T03:43:34.198Z,100756.47
2023-05-19T03:46:00.805Z,100751.19
2023-05-19T03:48:27.182Z,100745.97
2023-05-19T03:50:54.219Z,100758.28
2023-05-19T03:53:20.683Z,100759.13
2023-05-19T03:55:48.447Z,100759.19
2023-05-19T03:58:15.038Z,100742.56
2023-05-19T04:00:41.902Z,100756.63
2023-05-19T04:03:08.462Z,100751.44
2023-05-19T04:05:34.950Z,100761.09
2023-05-19T04:08:01.266Z,100747.00
2023-05-19T04:10:27.621Z,100748.69
2023-05-19T04:12:53.967Z,100756.53
2023-05-19T04:15:20.348Z,100755.63
2023-05-19T04:17:46.828Z,100752.97
2023-05-19T04:20:13.547Z,100728.38
2023-05-19T04:22:39.916Z,100746.81
2023-05-19T04:25:07.491Z,100749.34
2023-05-19T04:27:36.485Z,100758.13
2023-05-19T04:30:03.925Z,100741.41
2023-05-19T04:32:30.962Z,100763.44
2023-05-19T04:34:58.872Z,100743.25
2023-05-19T04:37:26.053Z,100751.25
2023-05-19T04:39:52.727Z,100760.84
2023-05-19T04:42:19.489Z,100761.75
2023-05-19T04:44:46.413Z,100760.00
2023-05-19T04:47:13.265Z,100764.41
2023-05-19T04:49:39.657Z,100755.56
2023-05-19T04:52:11.012Z,100749.41
2023-05-19T04:54:38.833Z,100768.66
2023-05-19T04:57:05.830Z,100769.50
2023-05-19T04:59:32.357Z,100763.34
2023-05-19T05:01:58.778Z,100762.44
2023-05-19T05:04:25.878Z,100746.63
2023-05-19T05:06:52.190Z,100774.59
2023-05-19T05:09:19.804Z,100776.31
2023-05-19T05:11:46.357Z,100777.16
2023-05-19T05:14:12.916Z,100774.44
2023-05-19T05:16:39.584Z,100763.88
2023-05-19T05:19:06.198Z,100767.31
2023-05-19T05:21:32.886Z,100772.44
2023-05-19T05:23:59.689Z,100772.31
2023-05-19T05:26:28.559Z,100758.03
2023-05-19T05:28:54.883Z,100764.97
2023-05-19T05:31:21.457Z,100764.00
2023-05-19T05:33:47.902Z,100758.53
2023-05-19T05:36:14.609Z,100759.22
2023-05-19T05:38:41.043Z,100750.31
2023-05-19T05:41:07.359Z,100758.06
2023-05-19T05:43:33.724Z,100749.16
2023-05-19T05:46:00.273Z,100748.09
2023-05-19T05:48:27.081Z,100750.53
2023-05-19T05:50:54.490Z,100758.28
2023-05-19T05:53:21.428Z,100753.81
2023-05-19T05:55:48.387Z,100751.91
2023-05-19T05:58:14.957Z,100752.56
2023-05-19T06:00:45.363Z,100753.25
2023-05-19T06:03:11.870Z,100751.25
2023-05-19T06:05:38.330Z,100751.94
2023-05-19T06:08:04.848Z,100751.72
2023-05-19T06:10:31.929Z,100748.00
2023-05-19T06:12:58.739Z,100747.91
2023-05-19T06:15:25.174Z,100750.41
2023-05-19T06:17:51.583Z,100747.50
2023-05-19T06:20:18.384Z,100746.41
2023-05-19T06:22:44.668Z,100750.72
2023-05-19T06:25:11.034Z,100746.09
2023-05-19T06:27:37.361Z,100745.84
2023-05-19T06:30:04.126Z,100743.94
2023-05-19T06:32:30.528Z,100746.31
2023-05-19T06:34:56.863Z,100745.13
2023-05-19T06:37:23.749Z,100736.09
2023-05-19T06:39:52.349Z,100745.56
2023-05-19T06:42:22.308Z,100748.09
2023-05-19T06:44:50.158Z,100748.97
2023-05-19T06:47:17.435Z,100739.94
2023-05-19T06:49:50.545Z,100747.59
2023-05-19T06:52:17.252Z,100757.13
2023-05-19T06:54:43.590Z,100757.84
2023-05-19T06:57:09.940Z,100746.22
2023-05-19T06:59:37.478Z,100744.97
2023-05-19T07:02:04.569Z,100743.00
2023-05-19T07:04:30.982Z,100750.72
2023-05-19T07:06:57.382Z,100742.59
2023-05-19T07:09:23.695Z,100756.44
2023-05-19T07:11:50.017Z,100750.94
2023-05-19T07:14:16.382Z,100717.31
2023-05-19T07:16:42.841Z,100745.09
2023-05-19T07:19:09.362Z,100731.53
2023-05-19T07:21:35.777Z,100708.69
2023-05-19T07:24:02.115Z,100729.88
2023-05-19T07:26:29.165Z,100720.41
2023-05-19T07:28:55.829Z,100710.97
2023-05-19T07:31:22.118Z,100720.78
2023-05-19T07:33:48.491Z,100714.75
2023-05-19T07:36:14.845Z,100710.34
2023-05-19T07:38:41.226Z,100715.63
2023-05-19T07:41:07.578Z,100698.84
2023-05-19T07:43:34.145Z,100706.56
2023-05-19T07:46:00.804Z,100695.38
2023-05-19T07:48:27.237Z,100685.00
2023-05-19T07:50:53.605Z,100688.03
2023-05-19T07:53:20.280Z,100695.34
2023-05-19T07:55:46.620Z,100678.47
2023-05-19T07:58:12.917Z,100678.06
2023-05-19T08:00:39.340Z,100671.22
2023-05-19T08:03:07.848Z,100664.53
2023-05-19T08:05:35.849Z,100651.09
2023-05-19T08:08:02.797Z,100669.22
2023-05-19T08:10:29.622Z,100655.06
2023-05-19T08:12:56.052Z,100658.56
2023-05-19T08:15:22.411Z,100652.25
2023-05-19T08:17:48.801Z,100656.66
2023-05-19T08:20:15.187Z,100640.31
2023-05-19T08:22:41.601Z,100658.75
2023-05-19T08:25:08.308Z,100661.63
2023-05-19T08:27:34.694Z,100655.47
2023-05-19T08:30:01.217Z,100653.31
2023-05-19T08:32:27.631Z,100649.34
2023-05-19T08:34:53.995Z,100642.53
2023-05-19T08:37:20.361Z,100646.38
2023-05-19T08:39:46.678Z,100639.44
2023-05-19T08:42:13.059Z,100640.81
2023-05-19T08:44:41.206Z,100629.44
2023-05-19T08:47:12.695Z,100648.00
2023-05-19T08:49:46.596Z,100641.19
2023-05-19T08:52:53.272Z,100637.91
2023-05-19T08:55:33.857Z,100635.25
2023-05-19T08:58:04.204Z,100630.19
2023-05-19T09:00:31.050Z,100641.53
2023-05-19T09:03:10.758Z,100631.59
2023-05-19T09:05:45.511Z,100630.97
2023-05-19T09:08:12.180Z,100624.75
2023-05-19T09:10:38.532Z,100614.97
2023-05-19T09:13:06.300Z,100617.53
2023-05-19T09:15:36.678Z,100598.44
2023-05-19T09:18:11.029Z,100613.00
2023-05-19T09:20:42.268Z,100610.56
2023-05-19T09:23:16.264Z,100598.16
2023-05-19T09:26:08.938Z,100609.97
2023-05-19T09:28:36.761Z,100600.25
2023-05-19T09:31:05.244Z,100597.59
2023-05-19T09:33:35.292Z,100606.13
2023-05-19T09:36:03.090Z,100597.19
2023-05-19T09:38:29.637Z,100595.84
2023-05-19T09:40:57.913Z,100601.69
2023-05-19T09:43:24.456Z,100595.25
2023-05-19T09:45:56.177Z,100594.31
2023-05-19T09:48:22.632Z,100595.91
2023-05-19T09:50:51.573Z,100594.72
2023-05-19T09:53:18.482Z,100593.13
2023-05-19T09:55:45.450Z,100585.84
2023-05-19T09:58:16.647Z,100581.50
2023-05-19T10:00:43.234Z,100593.84
2023-05-19T10:03:10.072Z,100590.19
2023-05-19T10:05:36.586Z,100591.94
2023-05-19T10:08:07.057Z,100595.19
2023-05-19T10:10:33.501Z,100587.09
2023-05-19T10:13:00.868Z,100594.31
2023-05-19T10:15:27.202Z,100577.91
2023-05-19T10:17:54.042Z,100562.38
2023-05-19T10:20:20.415Z,100573.84
2023-05-19T10:22:46.951Z,100569.00
2023-05-19T10:25:18.431Z,100571.44
2023-05-19T10:27:58.192Z,100567.22
2023-05-19T10:30:31.753Z,100549.59
2023-05-19T10:33:01.683Z,100559.09
2023-05-19T10:35:49.792Z,100562.69
2023-05-19T10:38:35.004Z,100552.59
2023-05-19T10:41:28.420Z,100547.44
2023-05-19T10:44:20.149Z,100565.78
2023-05-19T10:46:46.643Z,100540.41
2023-05-19T10:49:22.148Z,100549.91
2023-05-19T10:51:48.611Z,100555.03
2023-05-19T10:54:17.022Z,100537.94
2023-05-19T10:56:47.410Z,100547.25
2023-05-19T10:59:39.871Z,100549.97
2023-05-19T11:02:08.101Z,100539.59
2023-05-19T11:04:51.679Z,100546.59
2023-05-19T11:07:22.226Z,100532.41
2023-05-19T11:09:52.245Z,100536.97
2023-05-19T11:12:24.619Z,100540.75
2023-05-19T11:15:00.182Z,100536.03
2023-05-19T11:17:27.376Z,100523.91
2023-05-19T11:19:55.407Z,100522.28
2023-05-19T11:22:28.578Z,100516.53
2023-05-19T11:24:55.355Z,100530.69
2023-05-19T11:27:32.622Z,100534.28
2023-05-19T11:30:06.544Z,100529.94
2023-05-19T11:32:34.727Z,100528.31
2023-05-19T11:35:01.936Z,100519.06
2023-05-19T11:37:32.444Z,100520.13
2023-05-19T11:40:01.899Z,100525.22
2023-05-19T11:42:28.285Z,100516.53
2023-05-19T11:44:56.142Z,100511.16
2023-05-19T11:47:22.633Z,100500.50
2023-05-19T11:49:49.325Z,100501.97
2023-05-19T11:52:15.821Z,100501.75
2023-05-19T11:54:42.162Z,100498.16
2023-05-19T11:57:10.714Z,100491.50
2023-05-19T11:59:39.093Z,100496.66
2023-05-19T12:02:19.247Z,100496.66
2023-05-19T12:04:52.061Z,100482.44
2023-05-19T12:07:20.153Z,100486.88
2023-05-19T12:09:47.193Z,100482.28
2023-05-19T12:12:16.818Z,100494.50
2023-05-19T12:14:43.729Z,100489.09
2023-05-19T12:17:14.868Z,100495.19
2023-05-19T12:19:43.577Z,100493.16
2023-05-19T12:22:10.675Z,100480.59
2023-05-19T12:24:38.044Z,100499.28
2023-05-19T12:27:17.721Z,100495.31
2023-05-19T12:29:49.551Z,100486.66
2023-05-19T12:32:15.933Z,100492.94
2023-05-19T12:34:42.573Z,100492.03
2023-05-19T12:37:11.045Z,100480.78
2023-05-19T12:39:37.414Z,100482.00
2023-05-19T12:42:11.214Z,100486.47
2023-05-19T12:44:39.197Z,100489.53
2023-05-19T12:47:07.076Z,100489.75
2023-05-19T12:49:34.116Z,100490.84
2023-05-19T12:52:06.089Z,100494.72
2023-05-19T12:54:35.879Z,100490.75
2023-05-19T12:57:05.983Z,100487.06
2023-05-19T12:59:38.783Z,100475.94
2023-05-19T13:02:06.297Z,100472.25
2023-05-19T13:04:32.812Z,100467.00
2023-05-19T13:06:59.149Z,100464.31
2023-05-19T13:09:25.993Z,100449.19
2023-05-19T13:11:53.964Z,100466.69
2023-05-19T13:14:20.504Z,100470.38
2023-05-19T13:16:47.288Z,100472.53
2023-05-19T13:19:25.366Z,100462.50
2023-05-19T13:21:52.332Z,100455.06
2023-05-19T13:24:18.745Z,100458.97
2023-05-19T13:26:45.341Z,100461.81
2023-05-19T13:29:11.923Z,100471.13
2023-05-19T13:31:38.263Z,100466.22
2023-05-19T13:34:04.629Z,100462.47
2023-05-19T13:36:33.166Z,100462.22
2023-05-19T13:39:00.690Z,100463.75
2023-05-19T13:41:29.126Z,100460.56
2023-05-19T13:43:59.485Z,100463.16
2023-05-19T13:46:36.566Z,100461.69
2023-05-19T13:49:10.314Z,100454.63
2023-05-19T13:51:37.522Z,100456.63
2023-05-19T13:54:04.583Z,100465.84
2023-05-19T13:56:31.573Z,100460.69
2023-05-19T13:58:57.956Z,100454.03
2023-05-19T14:01:24.460Z,100459.13
2023-05-19T14:03:51.073Z,100457.44
2023-05-19T14:06:17.648Z,100450.91
2023-05-19T14:08:45.435Z,100444.81
2023-05-19T14:11:19.655Z,100452.28
2023-05-19T14:13:46.771Z,100449.69
2023-05-19T14:16:13.129Z,100453.38
2023-05-19T14:18:39.477Z,100446.03
2023-05-19T14:21:06.137Z,100445.59
2023-05-19T14:23:32.624Z,100441.59
2023-05-19T14:25:59.000Z,100448.56
2023-05-19T14:28:25.452Z,100443.84
2023-05-19T14:30:52.345Z,100431.16
2023-05-19T14:33:19.403Z,100430.34
2023-05-19T14:35:45.727Z,100433.91
2023-05-19T14:38:12.660Z,100427.16
2023-05-19T14:40:41.303Z,100422.94
2023-05-19T14:43:07.905Z,100412.88
2023-05-19T14:45:35.198Z,100422.47
2023-05-19T14:48:02.015Z,100413.88
2023-05-19T14:50:29.418Z,100430.22
2023-05-19T14:52:56.651Z,100411.94
2023-05-19T14:55:23.000Z,100430.91
2023-05-19T14:57:50.145Z,100427.91
2023-05-19T15:00:17.703Z,100423.94
2023-05-19T15:02:44.412Z,100427.31
2023-05-19T15:05:11.625Z,100414.03
2023-05-19T15:07:38.016Z,100422.66
2023-05-19T15:10:05.014Z,100405.19
2023-05-19T15:12:31.429Z,100406.22
2023-05-19T15:14:57.996Z,100411.31
2023-05-19T15:17:24.436Z,100411.53
2023-05-19T15:19:50.851Z,100385.72
2023-05-19T15:22:17.511Z,100412.72
2023-05-19T15:24:44.117Z,100400.28
2023-05-19T15:27:10.775Z,100410.00
2023-05-19T15:29:37.101Z,100402.72
2023-05-19T15:32:03.751Z,100407.88
2023-05-19T15:34:30.104Z,100412.75
2023-05-19T15:36:56.458Z,100405.88
2023-05-19T15:39:22.849Z,100407.97
2023-05-19T15:41:50.981Z,100403.47
2023-05-19T15:44:17.704Z,100403.63
2023-05-19T15:46:44.104Z,100414.94
2023-05-19T15:49:12.775Z,100412.31
2023-05-19T15:51:39.453Z,100402.41
2023-05-19T15:54:05.783Z,100396.81
2023-05-19T15:56:32.109Z,100412.78
2023-05-19T15:58:58.457Z,100405.75
2023-05-19T16:01:25.075Z,100403.38
2023-05-19T16:03:51.679Z,100398.16
2023-05-19T16:06:18.189Z,100396.34
2023-05-19T16:08:44.620Z,100390.75
2023-05-19T16:11:10.993Z,100400.56
2023-05-19T16:13:37.313Z,100403.25
2023-05-19T16:16:03.807Z,100402.75
2023-05-19T16:18:30.333Z,100397.16
2023-05-19T16:20:56.886Z,100388.88
2023-05-19T16:23:24.686Z,100391.88
2023-05-19T16:25:51.074Z,100386.13
2023-05-19T16:28:17.427Z,100382.13
2023-05-19T16:30:43.866Z,100383.94
2023-05-19T16:33:10.331Z,100388.28
2023-05-19T16:35:37.037Z,100391.91
2023-05-19T16:38:04.421Z,100384.91
2023-05-19T16:40:31.177Z,100381.66
2023-05-19T16:42:57.636Z,100369.44
2023-05-19T16:45:26.104Z,100383.13
2023-05-19T16:47:52.486Z,100376.28
2023-05-19T16:50:18.856Z,100371.09
2023-05-19T16:52:45.389Z,100372.25
2023-05-19T16:55:12.081Z,100347.66
2023-05-19T16:57:38.478Z,100376.59
2023-05-19T17:00:05.341Z,100377.75
2023-05-19T17:02:31.849Z,100376.97
2023-05-19T17:04:58.463Z,100380.75
2023-05-19T17:07:24.798Z,100376.59
2023-05-19T17:09:52.135Z,100376.00
2023-05-19T17:12:19.425Z,100370.88
2023-05-19T17:14:45.752Z,100365.88
2023-05-19T17:17:12.198Z,100383.78
2023-05-19T17:19:38.646Z,100366.66
2023-05-19T17:22:05.021Z,100372.72
2023-05-19T17:24:33.156Z,100372.16
2023-05-19T17:27:00.055Z,100375.13
2023-05-19T17:29:29.319Z,100361.28
2023-05-19T17:31:55.727Z,100373.84
2023-05-19T17:34:22.188Z,100379.25
2023-05-19T17:36:49.581Z,100382.13
2023-05-19T17:39:16.413Z,100381.66
2023-05-19T17:41:43.092Z,100374.03
2023-05-19T17:44:09.468Z,100377.50
2023-05-19T17:46:36.084Z,100380.56
2023-05-19T17:49:02.516Z,100387.56
2023-05-19T17:51:29.250Z,100368.53
2023-05-19T17:53:55.876Z,100392.28
2023-05-19T17:56:23.075Z,100388.50
2023-05-19T17:58:49.966Z,100384.56
2023-05-19T18:01:17.333Z,100384.84
2023-05-19T18:03:49.251Z,100391.06
2023-05-19T18:06:19.473Z,100388.56
2023-05-19T18:08:51.371Z,100395.16
2023-05-19T18:11:18.226Z,100388.25
2023-05-19T18:13:44.902Z,100392.47
2023-05-19T18:16:12.139Z,100390.06
2023-05-19T18:18:41.062Z,100401.50
2023-05-19T18:21:07.507Z,100400.81
2023-05-19T18:23:33.845Z,100401.75
2023-05-19T18:26:00.148Z,100400.97
2023-05-19T18:28:26.549Z,100393.88
2023-05-19T18:31:03.873Z,100401.31
2023-05-19T18:33:31.350Z,100389.91
2023-05-19T18:35:58.309Z,100390.25
2023-05-19T18:38:24.708Z,100398.13
2023-05-19T18:40:51.141Z,100397.53
2023-05-19T18:43:18.417Z,100388.19
2023-05-19T18:45:47.209Z,100400.84
2023-05-19T18:48:13.936Z,100392.25
2023-05-19T18:50:40.893Z,100398.94
2023-05-19T18:53:07.259Z,100402.81
2023-05-19T18:55:33.525Z,100405.78
2023-05-19T18:57:59.959Z,100404.31
2023-05-19T19:00:27.921Z,100399.28
2023-05-19T19:02:54.506Z,100399.53
2023-05-19T19:05:21.349Z,100411.50
2023-05-19T19:07:47.688Z,100398.34
2023-05-19T19:10:15.074Z,100401.16
2023-05-19T19:12:41.405Z,100404.97
2023-05-19T19:15:07.883Z,100403.41
2023-05-19T19:17:34.291Z,100396.47
2023-05-19T19:20:00.754Z,100404.81
2023-05-19T19:22:27.217Z,100379.94
2023-05-19T19:24:53.467Z,100410.69
2023-05-19T19:27:21.186Z,100413.88
2023-05-19T19:29:47.526Z,100413.09
2023-05-19T19:32:13.800Z,100423.19
2023-05-19T19:34:40.105Z,100424.47
2023-05-19T19:37:06.384Z,100418.41
2023-05-19T19:39:32.751Z,100426.63
2023-05-19T19:41:59.013Z,100425.91
2023-05-19T19:44:25.379Z,100430.63
2023-05-19T19:46:51.725Z,100430.78
2023-05-19T19:49:18.052Z,100428.59
2023-05-19T19:51:44.456Z,100427.81
2023-05-19T19:54:10.817Z,100433.31
2023-05-19T19:56:37.127Z,100433.50
2023-05-19T19:59:03.446Z,100434.41
2023-05-19T20:01:29.835Z,100432.69
2023-05-19T20:03:57.403Z,100403.22
2023-05-19T20:06:23.890Z,100422.84
2023-05-19T20:08:50.417Z,100431.72
2023-05-19T20:11:17.314Z,100433.78
2023-05-19T20:13:43.715Z,100418.69
2023-05-19T20:16:10.025Z,100420.59
2023-05-19T20:18:36.380Z,100420.13
2023-05-19T20:21:02.780Z,100421.78
2023-05-19T20:23:29.100Z,100417.59
2023-05-19T20:26:11.051Z,100426.69
2023-05-19T20:28:38.693Z,100415.47
2023-05-19T20:31:05.514Z,100423.50
2023-05-19T20:33:32.006Z,100417.75
2023-05-19T20:35:58.306Z,100424.84
2023-05-19T20:38:24.638Z,100424.22
2023-05-19T20:40:51.003Z,100427.00
2023-05-19T20:43:17.321Z,100430.78
2023-05-19T20:45:44.447Z,100426.22
2023-05-19T20:48:11.276Z,100430.78
2023-05-19T20:50:39.106Z,100418.13
2023-05-19T20:53:07.213Z,100436.53
2023-05-19T20:55:35.891Z,100426.09
2023-05-19T20:58:02.345Z,100424.41
2023-05-19T21:00:30.400Z,100432.44
2023-05-19T21:02:57.170Z,100438.91
2023-05-19T21:05:23.586Z,100432.91
2023-05-19T21:07:49.969Z,100435.91
2023-05-19T21:10:17.729Z,100436.88
2023-05-19T21:12:44.176Z,100445.13
2023-05-19T21:15:10.694Z,100443.38
2023-05-19T21:17:37.084Z,100438.16
2023-05-19T21:20:03.863Z,100434.75
2023-05-19T21:22:31.180Z,100436.84
2023-05-19T21:24:57.875Z,100436.28
2023-05-19T21:27:24.239Z,100433.66
2023-05-19T21:29:52.975Z,100436.59
2023-05-19T21:32:22.389Z,100444.91
2023-05-19T21:34:48.784Z,100443.31
2023-05-19T21:37:17.106Z,100452.28
2023-05-19T21:39:43.743Z,100440.84
2023-05-19T21:42:10.206Z,100438.41
2023-05-19T21:44:36.560Z,100449.09
2023-05-19T21:47:02.944Z,100448.56
2023-05-19T21:49:29.389Z,100447.69
2023-05-19T21:51:55.687Z,100442.63
2023-05-19T21:54:22.006Z,100440.81
2023-05-19T21:56:48.382Z,100446.25
2023-05-19T21:59:14.794Z,100443.69
2023-05-19T22:01:42.176Z,100443.75
2023-05-19T22:04:09.345Z,100438.59
2023-05-19T22:06:35.890Z,100444.91
2023-05-19T22:09:02.568Z,100442.47
2023-05-19T22:11:28.916Z,100438.25
2023-05-19T22:13:55.365Z,100442.84
2023-05-19T22:16:21.933Z,100445.72
2023-05-19T22:18:48.384Z,100439.66
2023-05-19T22:21:14.712Z,100448.59
2023-05-19T22:23:41.190Z,100446.97
2023-05-19T22:26:07.744Z,100437.34
2023-05-19T22:28:34.132Z,100443.75
2023-05-19T22:31:00.659Z,100446.63
2023-05-19T22:33:26.939Z,100454.66
2023-05-19T22:35:53.537Z,100441.44
2023-05-19T22:38:19.899Z,100437.16
2023-05-19T22:40:46.310Z,100422.97
2023-05-19T22:43:12.639Z,100440.88
2023-05-19T22:45:39.076Z,100430.50
2023-05-19T22:48:05.561Z,100432.28
2023-05-19T22:50:31.938Z,100429.69
2023-05-19T22:52:58.416Z,100429.72
2023-05-19T22:55:24.940Z,100422.91
2023-05-19T22:57:51.273Z,100420.19
2023-05-19T23:00:20.575Z,100421.16
2023-05-19T23:02:47.272Z,100420.44
2023-05-19T23:05:13.652Z,100419.69
2023-05-19T23:07:40.057Z,100421.72
2023-05-19T23:10:07.426Z,100429.94
2023-05-19T23:12:33.956Z,100418.50
2023-05-19T23:15:00.330Z,100416.03
2023-05-19T23:17:26.700Z,100422.41
2023-05-19T23:19:53.061Z,100429.66
2023-05-19T23:22:19.481Z,100426.19
2023-05-19T23:24:45.939Z,100424.47
2023-05-19T23:27:12.260Z,100424.63
2023-05-19T23:29:38.572Z,100418.59
2023-05-19T23:32:05.326Z,100414.25
2023-05-19T23:34:31.736Z,100418.78
2023-05-19T23:36:58.044Z,100421.63
2023-05-19T23:39:25.377Z,100425.34
2023-05-19T23:41:51.824Z,100418.44
2023-05-19T23:44:18.493Z,100415.75
2023-05-19T23:46:44.909Z,100413.09
2023-05-19T23:49:11.366Z,100411.41
2023-05-19T23:51:37.763Z,100410.59
2023-05-19T23:54:04.075Z,100408.94
2023-05-19T23:56:30.470Z,100403.72
2023-05-19T23:58:56.880Z,100412.69
